Portada
METAR-TAF:

METAR-TAF

Aeroports :

Curaçao, Antilles Neerlandeses

latitud: 12-12N, longitud: 068-58W, altitud: 9 m

Observació

L'informe es va fer fa 1 hora i 9 minuts, a les 15:00 UTC
Vent 13 kt del Est
Temperatura 30°C
Humitat 70%
Pressió 1011 hPa
Visibilitat 10 km o més
Escasses núvols a una alçada de 2000 ft, Cumulus congestus.
Escasses núvols a una alçada de 2500 ft
xàfecs de pluja

METAR: TNCC 121500Z 10013KT 9999 -SHRA FEW020TCU FEW025 30/24 Q1011 NOSIG

Hora: 12:09 (16:09 UTC)

Pronòstic

L'informe es va fer fa 4 hores i 54 minuts, a les 11:15 UTC
Pronòstic vàlid del 12 a les 12 UTC al 13 a les 12 UTC
Vent 13 kt del Est/Sud-Est
Visibilitat 10 km o més
Núvols disperses a una alçada de 2000 ft
Temporalment
l' 12 a les 12 UTC al 12 a les 15 UTC
Cel ennuvolat a una alçada de 1400 ft

TAF: TNCC 121115Z 1212/1312 11013KT 9999 SCT020 TEMPO 1212/1215 BKN014

Observacions i pronòstics meteorològics de més de 4000 aeroports (METAR i TAF).

Les estacions disponibles són els punts grocs i vermells al mapa.

Posi el ratolí al punt desitjat per veure el nom de l'estació.

Feu clic per veure les observacions i els pronòstics meteorològics.

Per canviar el mapa: feu clic els botons verds amb una creu de color negre per apropar; al botó verd amb un guió per allunyar la imatge; o en les fletxes verdes per a mapes adjacents.


METAR-TAF: